createdAt,value
2022-09-01T00:04:52.478Z,0
2022-09-01T00:09:56.627Z,0
2022-09-01T00:15:00.787Z,0
2022-09-01T00:20:04.948Z,0
2022-09-01T00:25:09.134Z,0
2022-09-01T00:30:13.245Z,0
2022-09-01T00:35:17.413Z,0
2022-09-01T00:40:21.726Z,0
2022-09-01T00:45:25.730Z,0
2022-09-01T00:50:29.902Z,0
2022-09-01T00:55:32.692Z,0
2022-09-01T01:00:36.667Z,0
2022-09-01T01:05:40.498Z,0
2022-09-01T01:10:44.648Z,0
2022-09-01T01:15:48.847Z,0
2022-09-01T01:20:53.006Z,0
2022-09-01T01:25:57.162Z,0
2022-09-01T01:31:01.621Z,0
2022-09-01T01:36:05.476Z,0
2022-09-01T01:41:09.652Z,0
2022-09-01T01:46:13.795Z,0
2022-09-01T01:51:17.963Z,0
2022-09-01T01:56:22.111Z,0
2022-09-01T02:01:26.317Z,0
2022-09-01T02:06:30.433Z,0
2022-09-01T02:11:34.571Z,0
2022-09-01T02:16:38.821Z,0
2022-09-01T02:21:42.893Z,0
2022-09-01T02:26:47.094Z,0
2022-09-01T02:31:51.240Z,0
2022-09-01T02:36:55.390Z,0
2022-09-01T02:41:57.656Z,0
2022-09-01T02:47:02.001Z,0
2022-09-01T02:52:04.073Z,0
2022-09-01T02:57:08.273Z,0
2022-09-01T03:02:10.560Z,0
2022-09-01T03:07:14.662Z,0
2022-09-01T03:12:19.210Z,0
2022-09-01T03:17:23.026Z,0
2022-09-01T03:22:27.149Z,0
2022-09-01T03:27:31.341Z,0
2022-09-01T03:32:35.495Z,0
2022-09-01T03:37:39.674Z,0
2022-09-01T03:42:43.812Z,0
2022-09-01T03:47:47.942Z,0
2022-09-01T03:52:52.138Z,0
2022-09-01T03:57:56.318Z,0
2022-09-01T04:03:00.499Z,0
2022-09-01T04:08:04.632Z,0
2022-09-01T04:13:08.785Z,0
2022-09-01T04:18:12.921Z,0
2022-09-01T04:23:17.101Z,3
2022-09-01T04:28:21.388Z,9
2022-09-01T04:33:25.399Z,21
2022-09-01T04:38:29.598Z,44
2022-09-01T04:43:33.725Z,80
2022-09-01T04:48:36.073Z,133
2022-09-01T04:53:40.154Z,210
2022-09-01T04:58:42.444Z,299
2022-09-01T05:03:46.591Z,388
2022-09-01T05:08:50.768Z,460
2022-09-01T05:13:54.908Z,540
2022-09-01T05:18:59.100Z,616
2022-09-01T05:24:03.236Z,690
2022-09-01T05:29:07.436Z,763
2022-09-01T05:34:13.982Z,825
2022-09-01T05:39:15.768Z,890
2022-09-01T05:44:19.916Z,938
2022-09-01T05:49:24.044Z,978
2022-09-01T05:54:28.190Z,1016
2022-09-01T05:59:32.354Z,1052
2022-09-01T06:04:36.538Z,1100
2022-09-01T06:09:40.715Z,1145
2022-09-01T06:14:44.840Z,1176
2022-09-01T06:19:49.056Z,1201
2022-09-01T06:24:55.687Z,1225
2022-09-01T06:29:57.397Z,1237
2022-09-01T06:40:05.675Z,1274
2022-09-01T06:45:09.838Z,1294
2022-09-01T06:50:12.178Z,1305
2022-09-01T06:55:16.348Z,1311
2022-09-01T07:00:20.419Z,1322
2022-09-01T07:10:28.733Z,1326
2022-09-01T07:21:02.366Z,1335
2022-09-01T07:26:00.403Z,1345
2022-09-01T07:30:48.628Z,1355
2022-09-01T07:45:58.647Z,1385
2022-09-01T07:56:06.150Z,1395
2022-09-01T08:01:10.312Z,1400
2022-09-01T08:06:14.482Z,1404
2022-09-01T08:11:25.233Z,1414
2022-09-01T08:16:22.818Z,1420
2022-09-01T08:21:26.984Z,1420
2022-09-01T08:26:31.113Z,1432
2022-09-01T08:31:35.336Z,1430
2022-09-01T08:36:40.603Z,1450
2022-09-01T08:41:46.785Z,1456
2022-09-01T08:46:44.083Z,1470
2022-09-01T08:51:48.157Z,1479
2022-09-01T08:56:50.438Z,1490
2022-09-01T09:01:54.839Z,1493
2022-09-01T09:06:58.703Z,1495
2022-09-01T09:12:03.590Z,1515
2022-09-01T09:22:11.433Z,1548
2022-09-01T09:27:16.371Z,1555
2022-09-01T09:32:24.011Z,1576
2022-09-01T09:37:23.678Z,1634
2022-09-01T09:42:33.986Z,1670
2022-09-01T09:47:43.063Z,1685
2022-09-01T09:52:36.160Z,1744
2022-09-01T09:57:40.300Z,1798
2022-09-01T10:02:44.513Z,1836
2022-09-01T10:07:48.627Z,2078
2022-09-01T10:12:52.805Z,2051
2022-09-01T10:18:13.954Z,2170
2022-09-01T10:23:01.102Z,2044
2022-09-01T10:28:05.296Z,2089
2022-09-01T10:33:19.077Z,2550
2022-09-01T10:38:13.733Z,2208
2022-09-01T10:43:17.741Z,2048
2022-09-01T10:48:30.284Z,2002
2022-09-01T10:53:26.911Z,2011
2022-09-01T11:03:34.111Z,2227
2022-09-01T11:18:45.035Z,3627
2022-09-01T11:23:49.106Z,2666
2022-09-01T11:28:53.310Z,2720
2022-09-01T11:33:57.455Z,2710
2022-09-01T11:39:01.620Z,2926
2022-09-01T11:44:05.769Z,3755
2022-09-01T11:49:09.911Z,2530
2022-09-01T11:54:14.064Z,2336
2022-09-01T11:59:16.342Z,3853
2022-09-01T12:04:27.520Z,3013
2022-09-01T12:09:38.687Z,3127
2022-09-01T12:15:05.311Z,3059
2022-09-01T12:20:01.018Z,2638
2022-09-01T12:25:12.188Z,3509
2022-09-01T12:30:23.401Z,3339
2022-09-01T12:35:25.626Z,3075
2022-09-01T12:40:30.545Z,4100
2022-09-01T12:45:34.297Z,5151
2022-09-01T12:50:38.084Z,4871
2022-09-01T12:55:48.645Z,3174
2022-09-01T13:00:46.413Z,3622
2022-09-01T13:05:51.042Z,3504
2022-09-01T13:10:54.695Z,3578
2022-09-01T13:15:58.926Z,3630
2022-09-01T13:21:03.049Z,3180
2022-09-01T13:26:07.195Z,2645
2022-09-01T13:31:33.947Z,2593
2022-09-01T13:36:44.422Z,2643
2022-09-01T13:41:19.862Z,2921
2022-09-01T13:46:23.892Z,2988
2022-09-01T13:51:28.014Z,3460
2022-09-01T13:56:32.214Z,2956
2022-09-01T14:01:36.361Z,2584
2022-09-01T14:06:40.514Z,2991
2022-09-01T14:11:44.649Z,4693
2022-09-01T14:16:48.999Z,5084
2022-09-01T14:21:51.118Z,3125
2022-09-01T14:26:55.221Z,2959
2022-09-01T14:31:59.450Z,2822
2022-09-01T14:37:03.549Z,2770
2022-09-01T14:42:07.716Z,2682
2022-09-01T14:47:12.500Z,2878
2022-09-01T14:52:16.046Z,3240
2022-09-01T14:57:38.036Z,3185
2022-09-01T15:02:24.566Z,3316
2022-09-01T15:07:28.509Z,3762
2022-09-01T15:12:32.670Z,15946
2022-09-01T15:17:36.822Z,6352
2022-09-01T15:22:41.024Z,16883
2022-09-01T15:27:45.187Z,17191
2022-09-01T15:32:49.335Z,15925
2022-09-01T15:37:53.465Z,14321
2022-09-01T15:43:00.003Z,15751
2022-09-01T15:48:01.777Z,17446
2022-09-01T15:53:05.945Z,9252
2022-09-01T15:58:10.126Z,7960
2022-09-01T16:03:14.314Z,7108
2022-09-01T16:08:16.529Z,6674
2022-09-01T16:13:20.681Z,5771
2022-09-01T16:18:23.088Z,5475
2022-09-01T16:23:27.119Z,5161
2022-09-01T16:28:29.411Z,3280
2022-09-01T16:33:33.640Z,4682
2022-09-01T16:38:37.713Z,4427
2022-09-01T16:43:41.877Z,10042
2022-09-01T16:48:46.041Z,3445
2022-09-01T16:53:50.189Z,2920
2022-09-01T16:58:52.473Z,2462
2022-09-01T17:03:56.630Z,2018
2022-09-01T17:09:00.782Z,1920
2022-09-01T17:14:04.936Z,1767
2022-09-01T17:19:09.122Z,1689
2022-09-01T17:24:13.246Z,1620
2022-09-01T17:29:17.444Z,1493
2022-09-01T17:34:21.553Z,1368
2022-09-01T17:39:25.703Z,1233
2022-09-01T17:44:30.028Z,1077
2022-09-01T17:49:34.044Z,785
2022-09-01T17:54:38.226Z,652
2022-09-01T17:59:42.346Z,542
2022-09-01T18:04:46.491Z,424
2022-09-01T18:09:50.688Z,295
2022-09-01T18:14:52.955Z,205
2022-09-01T18:19:57.098Z,134
2022-09-01T18:24:59.400Z,82
2022-09-01T18:30:03.498Z,46
2022-09-01T18:35:07.695Z,24
2022-09-01T18:40:09.988Z,10
2022-09-01T18:45:14.096Z,5
2022-09-01T18:50:18.259Z,1
2022-09-01T18:55:22.449Z,0
2022-09-01T19:00:30.558Z,0
2022-09-01T19:05:33.374Z,0
2022-09-01T19:10:34.924Z,0
2022-09-01T19:15:39.111Z,0
2022-09-01T19:20:43.228Z,0
2022-09-01T19:25:47.380Z,0
2022-09-01T19:30:51.630Z,0
2022-09-01T19:35:55.716Z,0
2022-09-01T19:40:59.898Z,0
2022-09-01T19:46:04.072Z,0
2022-09-01T19:51:08.198Z,0
2022-09-01T19:56:13.217Z,0
2022-09-01T20:01:16.646Z,0
2022-09-01T20:06:20.725Z,0
2022-09-01T20:11:25.174Z,0
2022-09-01T20:16:29.169Z,0
2022-09-01T20:21:33.128Z,0
2022-09-01T20:26:35.440Z,0
2022-09-01T20:31:39.542Z,0
2022-09-01T20:36:41.843Z,0
2022-09-01T20:41:46.027Z,0
2022-09-01T20:46:50.152Z,0
2022-09-01T20:51:54.301Z,0
2022-09-01T20:56:58.516Z,0
2022-09-01T21:02:02.744Z,0
2022-09-01T21:07:06.791Z,0
2022-09-01T21:12:10.954Z,0
2022-09-01T21:17:15.105Z,0
2022-09-01T21:22:22.213Z,0
2022-09-01T21:27:23.464Z,0
2022-09-01T21:32:27.594Z,0
2022-09-01T21:37:31.758Z,0
2022-09-01T21:42:35.920Z,0
2022-09-01T21:47:40.103Z,0
2022-09-01T21:52:44.243Z,0
2022-09-01T21:57:48.386Z,0
2022-09-01T22:02:52.633Z,0
2022-09-01T22:07:56.732Z,0
2022-09-01T22:13:00.913Z,0
2022-09-01T22:18:05.052Z,0
2022-09-01T22:23:07.301Z,0
2022-09-01T22:28:11.491Z,0
2022-09-01T22:33:15.640Z,0
2022-09-01T22:38:19.785Z,0
2022-09-01T22:43:23.942Z,0
2022-09-01T22:48:28.090Z,0
2022-09-01T22:53:32.302Z,0
2022-09-01T22:58:36.446Z,0
2022-09-01T23:03:40.596Z,0
2022-09-01T23:08:44.756Z,0
2022-09-01T23:13:48.894Z,0
2022-09-01T23:18:53.086Z,0
2022-09-01T23:23:58.703Z,0
2022-09-01T23:29:01.385Z,0
2022-09-01T23:34:05.552Z,0
2022-09-01T23:39:09.693Z,0
2022-09-01T23:44:13.901Z,0
2022-09-01T23:49:18.073Z,0
2022-09-01T23:54:22.171Z,0
2022-09-01T23:59:27.623Z,0
